createdAt,value
2022-10-18T00:04:39.321Z,13.07
2022-10-18T00:09:32.741Z,13.02
2022-10-18T00:14:27.169Z,11.80
2022-10-18T00:19:24.715Z,12.02
2022-10-18T00:24:20.982Z,11.30
2022-10-18T00:29:15.847Z,10.77
2022-10-18T00:34:13.110Z,11.38
2022-10-18T00:39:08.489Z,11.38
2022-10-18T00:44:27.172Z,10.40
2022-10-18T00:49:32.633Z,15.35
2022-10-18T00:54:27.550Z,13.90
2022-10-18T00:59:21.499Z,13.70
2022-10-18T01:04:17.018Z,13.07
2022-10-18T01:09:42.143Z,12.40
2022-10-18T01:14:40.950Z,12.07
2022-10-18T01:20:01.640Z,12.93
2022-10-18T01:24:57.461Z,11.80
2022-10-18T01:30:28.555Z,12.02
2022-10-18T01:35:35.735Z,11.45
2022-10-18T01:40:30.360Z,11.77
2022-10-18T01:45:26.108Z,12.50
2022-10-18T01:50:31.978Z,11.40
2022-10-18T01:55:40.701Z,12.23
2022-10-18T02:00:43.037Z,11.10
2022-10-18T02:05:41.080Z,11.43
2022-10-18T02:10:50.599Z,12.00
2022-10-18T02:15:52.217Z,10.90
2022-10-18T02:20:48.077Z,10.70
2022-10-18T02:25:41.532Z,10.10
2022-10-18T02:31:07.828Z,11.45
2022-10-18T02:36:06.781Z,10.90
2022-10-18T02:41:00.571Z,10.57
2022-10-18T02:45:54.299Z,10.63
2022-10-18T02:50:47.908Z,10.18
2022-10-18T02:55:40.506Z,10.27
2022-10-18T03:00:33.371Z,10.40
2022-10-18T03:05:27.735Z,10.27
2022-10-18T03:10:21.553Z,9.45
2022-10-18T03:15:15.891Z,9.48
2022-10-18T03:20:10.006Z,10.00
2022-10-18T03:25:04.144Z,9.57
2022-10-18T03:29:57.461Z,10.88
2022-10-18T03:34:52.741Z,9.65
2022-10-18T03:39:45.814Z,9.13
2022-10-18T03:44:38.680Z,9.48
2022-10-18T03:54:45.947Z,9.48
2022-10-18T03:59:39.772Z,9.63
2022-10-18T04:04:33.113Z,9.93
2022-10-18T04:09:27.136Z,9.25
2022-10-18T04:14:22.294Z,9.05
2022-10-18T04:19:16.087Z,9.82
2022-10-18T04:24:09.131Z,10.50
2022-10-18T04:29:03.090Z,8.85
2022-10-18T04:33:56.687Z,9.35
2022-10-18T04:38:50.488Z,9.35
2022-10-18T04:48:58.323Z,10.25
2022-10-18T04:53:52.307Z,8.43
2022-10-18T04:58:45.691Z,8.02
2022-10-18T05:03:39.221Z,8.55
2022-10-18T05:08:35.381Z,10.13
2022-10-18T05:13:28.791Z,10.00
2022-10-18T05:18:22.720Z,13.80
2022-10-18T05:23:15.919Z,12.80
2022-10-18T05:28:10.751Z,11.85
2022-10-18T05:33:15.001Z,12.27
2022-10-18T05:38:09.237Z,20.77
2022-10-18T05:43:03.105Z,18.63
2022-10-18T05:48:01.186Z,14.88
2022-10-18T05:53:06.959Z,15.23
2022-10-18T05:58:06.581Z,15.82
2022-10-18T06:03:00.727Z,22.65
2022-10-18T06:07:55.335Z,19.80
2022-10-18T06:12:48.561Z,23.05
2022-10-18T06:17:42.751Z,22.40
2022-10-18T06:22:37.239Z,19.50
2022-10-18T06:27:32.319Z,32.63
2022-10-18T06:32:26.051Z,18.35
2022-10-18T06:37:19.286Z,23.27
2022-10-18T06:42:13.402Z,21.10
2022-10-18T06:47:08.451Z,19.60
2022-10-18T06:52:03.381Z,22.58
2022-10-18T06:56:58.356Z,22.15
2022-10-18T07:01:52.631Z,17.70
2022-10-18T07:06:46.049Z,23.20
2022-10-18T07:11:43.803Z,17.85
2022-10-18T07:16:37.718Z,18.73
2022-10-18T07:21:32.256Z,21.90
2022-10-18T07:26:31.180Z,18.02
2022-10-18T07:31:24.943Z,18.35
2022-10-18T07:36:17.692Z,16.80
2022-10-18T07:41:12.989Z,17.65
2022-10-18T07:46:07.617Z,22.55
2022-10-18T07:51:02.839Z,19.67
2022-10-18T07:56:07.175Z,19.45
2022-10-18T08:01:04.129Z,22.33
2022-10-18T08:05:58.522Z,18.75
2022-10-18T08:10:52.215Z,19.58
2022-10-18T08:15:45.779Z,14.32
2022-10-18T08:20:43.868Z,15.85
2022-10-18T08:25:37.814Z,16.75
2022-10-18T08:30:31.131Z,24.70
2022-10-18T08:35:24.453Z,22.55
2022-10-18T08:40:18.320Z,25.75
2022-10-18T08:45:30.109Z,22.83
2022-10-18T08:50:35.888Z,24.98
2022-10-18T08:55:54.942Z,24.42
2022-10-18T09:01:08.045Z,33.00
2022-10-18T09:06:10.749Z,27.13
2022-10-18T09:11:12.733Z,33.35
2022-10-18T09:16:11.517Z,31.85
2022-10-18T09:21:24.867Z,35.42
2022-10-18T09:26:21.295Z,28.67
2022-10-18T09:31:31.256Z,27.63
2022-10-18T09:36:35.968Z,33.15
2022-10-18T09:41:54.969Z,33.05
2022-10-18T09:46:52.564Z,40.17
2022-10-18T09:51:47.604Z,36.83
2022-10-18T10:01:56.410Z,40.53
2022-10-18T10:06:54.779Z,43.42
2022-10-18T10:11:53.020Z,48.53
2022-10-18T10:16:55.534Z,42.85
2022-10-18T10:21:51.318Z,42.88
2022-10-18T10:26:45.932Z,47.28
2022-10-18T10:31:39.733Z,44.17
2022-10-18T10:36:35.577Z,43.47
2022-10-18T10:41:29.613Z,39.88
2022-10-18T10:46:23.840Z,47.13
2022-10-18T10:51:29.242Z,38.20
2022-10-18T10:56:26.232Z,42.22
2022-10-18T11:01:22.553Z,48.00
2022-10-18T11:06:41.140Z,47.50
2022-10-18T11:11:47.133Z,56.40
2022-10-18T11:16:51.824Z,48.03
2022-10-18T11:21:45.685Z,50.97
2022-10-18T11:26:47.037Z,50.08
2022-10-18T11:31:49.430Z,49.53
2022-10-18T11:37:26.461Z,48.17
2022-10-18T11:42:16.317Z,53.85
2022-10-18T11:47:31.077Z,53.33
2022-10-18T11:52:36.916Z,51.67
2022-10-18T11:57:47.717Z,42.30
2022-10-18T12:02:59.063Z,51.17
2022-10-18T12:08:15.019Z,44.15
2022-10-18T12:13:13.976Z,45.72
2022-10-18T12:18:17.003Z,41.45
2022-10-18T12:23:16.601Z,41.88
2022-10-18T12:28:47.487Z,39.38
2022-10-18T12:33:46.016Z,38.88
2022-10-18T12:38:43.087Z,44.80
2022-10-18T12:44:00.059Z,36.05
2022-10-18T12:49:23.469Z,35.95
2022-10-18T12:54:25.495Z,36.38
2022-10-18T12:59:18.293Z,36.58
2022-10-18T13:04:32.920Z,33.47
2022-10-18T13:09:28.844Z,32.88
2022-10-18T13:15:12.380Z,32.72
2022-10-18T13:20:56.220Z,31.27
2022-10-18T13:26:11.063Z,30.08
2022-10-18T13:31:14.352Z,36.85
2022-10-18T13:36:26.611Z,36.13
2022-10-18T13:41:25.242Z,36.03
2022-10-18T13:46:39.568Z,43.55
2022-10-18T13:51:43.513Z,36.45
2022-10-18T13:56:55.077Z,38.30
2022-10-18T14:01:57.345Z,38.17
2022-10-18T14:06:52.629Z,42.53
2022-10-18T14:11:56.347Z,40.50
2022-10-18T14:17:14.197Z,41.28
2022-10-18T14:22:41.876Z,38.22
2022-10-18T14:27:42.228Z,42.40
2022-10-18T14:32:36.761Z,34.92
2022-10-18T14:37:35.401Z,37.10
2022-10-18T14:42:29.936Z,34.03
2022-10-18T14:47:44.358Z,38.67
2022-10-18T14:52:38.579Z,36.47
2022-10-18T14:57:35.827Z,37.80
2022-10-18T15:02:35.713Z,36.80
2022-10-18T15:07:46.991Z,38.40
2022-10-18T15:13:04.875Z,43.85
2022-10-18T15:17:59.259Z,34.28
2022-10-18T15:22:57.351Z,34.83
2022-10-18T15:27:54.265Z,32.85
2022-10-18T15:32:59.136Z,35.72
2022-10-18T15:38:06.818Z,34.33
2022-10-18T15:43:26.152Z,34.50
2022-10-18T15:48:32.380Z,29.63
2022-10-18T15:53:48.230Z,37.67
2022-10-18T15:59:09.010Z,32.67
2022-10-18T16:04:16.526Z,31.55
2022-10-18T16:09:17.295Z,33.38
2022-10-18T16:14:14.206Z,36.35
2022-10-18T16:19:17.391Z,28.88
2022-10-18T16:24:19.091Z,26.80
2022-10-18T16:29:20.884Z,29.77
2022-10-18T16:34:19.420Z,25.55
2022-10-18T16:39:17.955Z,22.83
2022-10-18T16:44:15.473Z,27.38
2022-10-18T16:49:28.318Z,24.10
2022-10-18T16:54:30.493Z,31.35
2022-10-18T16:59:33.886Z,27.08
2022-10-18T17:04:33.613Z,26.58
2022-10-18T17:09:31.063Z,33.25
2022-10-18T17:14:33.323Z,30.00
2022-10-18T17:19:37.157Z,32.58
2022-10-18T17:24:35.603Z,26.73
2022-10-18T17:29:35.964Z,25.58
2022-10-18T17:39:36.099Z,25.42
2022-10-18T17:44:37.371Z,28.23
2022-10-18T17:49:33.755Z,25.50
2022-10-18T17:54:36.467Z,28.08
2022-10-18T17:59:35.475Z,32.47
2022-10-18T18:04:35.603Z,27.38
2022-10-18T18:09:34.284Z,32.90
2022-10-18T18:14:29.146Z,28.17
2022-10-18T18:19:26.548Z,29.77
2022-10-18T18:24:43.580Z,21.10
2022-10-18T18:29:45.505Z,26.17
2022-10-18T18:34:46.684Z,32.70
2022-10-18T18:39:42.471Z,28.07
2022-10-18T18:44:38.505Z,33.30
2022-10-18T18:49:36.203Z,28.40
2022-10-18T18:54:31.454Z,30.23
2022-10-18T18:59:25.514Z,29.50
2022-10-18T19:04:22.615Z,34.10
2022-10-18T19:09:23.536Z,40.25
2022-10-18T19:14:18.620Z,42.38
2022-10-18T19:19:15.211Z,34.33
2022-10-18T19:24:09.450Z,39.17
2022-10-18T19:29:05.897Z,34.67
2022-10-18T19:34:00.228Z,37.97
2022-10-18T19:38:54.374Z,42.75
2022-10-18T19:43:51.724Z,52.53
2022-10-18T19:48:45.428Z,38.72
2022-10-18T19:53:39.841Z,38.72
2022-10-18T19:58:33.129Z,33.03
2022-10-18T20:03:31.124Z,30.00
2022-10-18T20:08:24.143Z,33.17
2022-10-18T20:13:21.332Z,30.25
2022-10-18T20:18:15.391Z,28.73
2022-10-18T20:23:08.166Z,29.25
2022-10-18T20:28:02.522Z,25.20
2022-10-18T20:32:56.430Z,25.88
2022-10-18T20:37:55.205Z,20.40
2022-10-18T20:47:48.655Z,19.23
2022-10-18T20:52:46.350Z,21.38
2022-10-18T20:57:49.298Z,30.33
2022-10-18T21:02:46.573Z,25.35
2022-10-18T21:07:43.630Z,24.75
2022-10-18T21:12:41.116Z,28.20
2022-10-18T21:17:39.038Z,23.45
2022-10-18T21:22:36.162Z,23.08
2022-10-18T21:27:31.795Z,20.80
2022-10-18T21:32:33.469Z,22.75
2022-10-18T21:37:35.113Z,20.27
2022-10-18T21:42:32.738Z,21.00
2022-10-18T21:47:28.915Z,20.17
2022-10-18T21:52:27.414Z,20.77
2022-10-18T21:57:23.621Z,15.93
2022-10-18T22:02:21.485Z,18.23
2022-10-18T22:07:19.012Z,16.48
2022-10-18T22:12:13.334Z,16.65
2022-10-18T22:17:08.481Z,15.05
2022-10-18T22:22:04.805Z,19.08
2022-10-18T22:27:05.080Z,14.05
2022-10-18T22:31:59.578Z,16.80
2022-10-18T22:36:54.213Z,12.73
2022-10-18T22:41:53.407Z,18.98
2022-10-18T22:46:50.624Z,13.45
2022-10-18T22:51:45.370Z,14.57
2022-10-18T22:56:39.733Z,12.57
2022-10-18T23:01:46.516Z,12.38
2022-10-18T23:06:44.401Z,18.05
2022-10-18T23:11:40.505Z,14.02
2022-10-18T23:16:45.249Z,15.02
2022-10-18T23:21:40.915Z,12.52
2022-10-18T23:26:36.172Z,13.52
2022-10-18T23:31:40.051Z,15.90
2022-10-18T23:36:41.107Z,12.65
2022-10-18T23:41:40.083Z,12.20
2022-10-18T23:46:38.741Z,20.27
2022-10-18T23:51:47.736Z,16.92
2022-10-18T23:56:45.668Z,11.57
